KPHT

Details ICAO KPHT
Name HENRY CO
Region United States
Timezone America/Chicago (UTC-6.0)
Plans Departing 0
Arriving 2
Stats Elevation 580 ft / 177 m (AMSL)
Location 36.339349° -88.382110°
Runways 2
Magnetic Variation 2.631° W
Sunrise 2017-12-15 12:59:18 UTC / 2017-12-15 06:59:18 Local
Sunset 2017-12-15 22:41:05 UTC / 2017-12-15 16:41:05 Local
Advertisement - Login to hide

Runways

ID Width Length Bearing (true) Bearing (mag) Surface Threshold Offset Overrun Length
02 100 ft / 30 m 5,011 ft / 1,527 m 16.29° 18.92° Asphalt 0 ft / 0 m 0 ft / 0 m
13 75 ft / 23 m 2,506 ft / 764 m 127.45° 130.08° Asphalt 190 ft / 58 m 190 ft / 58 m
20 100 ft / 30 m 5,011 ft / 1,527 m 196.30° 198.93° Asphalt 0 ft / 0 m 0 ft / 0 m
31 75 ft / 23 m 2,506 ft / 764 m 307.46° 310.09° Asphalt 290 ft / 88 m 290 ft / 88 m

Map

Weather


0- 5 10 15 20 25 30 35+ Temperature / ° C

Clouds and Precipitation
Forecast for 2017-12-16 06:00 UTC. Updated 37 minutes ago

Ground ~20,000 ft ~40,000 ft Winds

METAR

KPHT 160135Z AUTO 20004KT 10SM SCT048 M01/M04 A3015 RMK A01

TAF

Not found

Frequencies

Recorded 118.82 MHz AWOS 3
Unicom 123.00 MHz CTAF/UNICOM
Warning: Do not use this data for real-world aviation or navigation. No guarantee of current accuracy is given.